Time;durP1;ratioP1;P1;durP2;ratioP2;P2;SDS_P1;SDS_P2;PMS_P1;PMS_P2;Temp;Humidity;BMP_temperature;BMP_pressure;BME280_temperature;BME280_humidity;BME280_pressure;Samples;Min_cycle;Max_cycle;Signal;HPM_P1;HPM_P2
2021/09/26 00:00:39;;;;;;;16.00;10.83;;;13.90;99.90;;;;;;5022842;28;20189;-80
2021/09/26 00:03:05;;;;;;;15.73;11.77;;;13.80;99.90;;;;;;5021481;28;20217;-81
2021/09/26 00:05:30;;;;;;;15.83;11.30;;;13.80;99.90;;;;;;5021447;28;20206;-80
2021/09/26 00:07:56;;;;;;;14.73;11.37;;;13.80;99.90;;;;;;5022624;28;20235;-81
2021/09/26 00:10:23;;;;;;;14.50;11.00;;;13.70;99.90;;;;;;5022359;28;20190;-80
2021/09/26 00:12:50;;;;;;;14.97;11.50;;;13.70;99.90;;;;;;5022549;28;20523;-79
2021/09/26 00:15:17;;;;;;;15.20;11.57;;;13.70;99.90;;;;;;5038281;28;20205;-80
2021/09/26 00:17:43;;;;;;;16.77;10.97;;;13.70;99.90;;;;;;5021368;28;20174;-80
2021/09/26 00:20:10;;;;;;;14.03;11.20;;;13.60;99.90;;;;;;5021974;28;20174;-80
2021/09/26 00:22:36;;;;;;;13.90;10.97;;;13.60;99.90;;;;;;5021660;28;20193;-80
2021/09/26 00:25:03;;;;;;;13.93;10.70;;;13.60;99.90;;;;;;5037936;28;20228;-80
2021/09/26 00:27:30;;;;;;;15.17;11.07;;;13.60;99.90;;;;;;5021123;28;20189;-80
2021/09/26 00:29:56;;;;;;;15.30;11.33;;;13.50;99.90;;;;;;5021970;28;20174;-80
2021/09/26 00:32:22;;;;;;;14.03;10.77;;;13.50;99.90;;;;;;5022217;28;20174;-80
2021/09/26 00:34:47;;;;;;;15.87;11.47;;;13.50;99.90;;;;;;5053024;23;20317;-86
2021/09/26 00:37:13;;;;;;;12.80;9.67;;;13.40;99.90;;;;;;5002657;28;20262;-86
2021/09/26 00:39:39;;;;;;;12.03;10.03;;;13.50;99.90;;;;;;5002253;28;20167;-87
2021/09/26 00:42:04;;;;;;;13.77;11.53;;;13.40;99.90;;;;;;4986287;28;20183;-87
2021/09/26 00:44:30;;;;;;;15.33;11.00;;;13.40;99.90;;;;;;4986064;28;20179;-87
2021/09/26 00:46:56;;;;;;;14.50;11.90;;;13.40;99.90;;;;;;5001736;28;20643;-87
2021/09/26 00:49:22;;;;;;;17.83;12.73;;;13.30;99.90;;;;;;5018683;28;20543;-87
2021/09/26 00:51:48;;;;;;;16.93;11.77;;;13.30;99.90;;;;;;5002986;28;20184;-87
2021/09/26 00:54:15;;;;;;;17.10;12.50;;;13.40;99.90;;;;;;5018779;28;20197;-86
2021/09/26 00:56:41;;;;;;;16.03;11.90;;;13.40;99.90;;;;;;4985168;28;20350;-87
2021/09/26 00:59:07;;;;;;;17.07;13.30;;;13.40;99.90;;;;;;5001222;28;20172;-88
2021/09/26 01:01:33;;;;;;;16.90;12.63;;;13.40;99.90;;;;;;5001653;28;20179;-87
2021/09/26 01:03:59;;;;;;;17.73;13.00;;;13.40;99.90;;;;;;5018093;28;20172;-86
2021/09/26 01:06:53;;;;;;;16.30;12.83;;;13.50;99.90;;;;;;4982310;28;20200;-85
2021/09/26 01:09:44;;;;;;;19.73;12.93;;;13.40;99.90;;;;;;5031334;28;20238;-86
2021/09/26 01:12:38;;;;;;;16.97;13.27;;;13.40;99.90;;;;;;4998411;28;20738;-84
2021/09/26 01:15:08;;;;;;;18.93;12.97;;;13.40;99.90;;;;;;4999336;28;20670;-84
2021/09/26 01:17:53;;;;;;;17.73;13.80;;;13.40;99.90;;;;;;5001866;28;20209;-87
2021/09/26 01:20:37;;;;;;;18.00;13.07;;;13.50;99.90;;;;;;5007897;28;20204;-86
2021/09/26 01:23:03;;;;;;;17.00;12.87;;;13.50;99.90;;;;;;5039804;28;20185;-85
2021/09/26 01:25:43;;;;;;;16.57;13.17;;;13.60;99.90;;;;;;5039061;28;20226;-85
2021/09/26 01:28:33;;;;;;;16.30;12.73;;;13.60;99.90;;;;;;5024355;28;20221;-85
2021/09/26 01:31:30;;;;;;;17.53;13.37;;;13.60;99.90;;;;;;5025594;28;20174;-86
2021/09/26 01:34:04;;;;;;;16.90;13.27;;;13.60;99.90;;;;;;5013426;28;20254;-88
2021/09/26 01:36:35;;;;;;;16.80;12.93;;;13.60;99.90;;;;;;4989763;28;20211;-87
2021/09/26 01:39:10;;;;;;;15.23;12.20;;;13.60;99.90;;;;;;5041787;28;20195;-84
2021/09/26 01:41:48;;;;;;;16.10;12.67;;;13.60;99.90;;;;;;5012055;28;20193;-86
2021/09/26 01:44:18;;;;;;;15.60;12.37;;;13.60;99.90;;;;;;4994642;28;20267;-87
2021/09/26 01:46:46;;;;;;;17.17;12.80;;;13.60;99.90;;;;;;5026479;28;20180;-85
2021/09/26 01:49:34;;;;;;;17.03;13.50;;;13.60;99.90;;;;;;5025604;28;20186;-86
2021/09/26 01:52:01;;;;;;;17.27;13.80;;;13.70;99.90;;;;;;5010004;28;20282;-85
2021/09/26 01:54:26;;;;;;;17.37;13.43;;;13.70;99.90;;;;;;5008929;28;20663;-86
2021/09/26 01:56:53;;;;;;;17.40;13.50;;;13.70;99.90;;;;;;5008899;28;20293;-85
2021/09/26 01:59:20;;;;;;;18.37;13.90;;;13.70;99.90;;;;;;4992824;28;20183;-86
2021/09/26 02:01:46;;;;;;;17.73;13.17;;;13.70;99.90;;;;;;5009542;28;20194;-85
2021/09/26 02:04:13;;;;;;;16.90;12.70;;;13.70;99.90;;;;;;4993437;28;20184;-85
2021/09/26 02:06:41;;;;;;;18.13;13.93;;;13.70;99.90;;;;;;4992916;28;20208;-86
2021/09/26 02:09:08;;;;;;;16.20;12.93;;;13.70;99.90;;;;;;4993388;28;20639;-85
2021/09/26 02:11:35;;;;;;;16.63;13.33;;;13.70;99.90;;;;;;4993308;28;20188;-85
2021/09/26 02:14:02;;;;;;;18.20;14.00;;;13.70;99.90;;;;;;5009364;28;20592;-85
2021/09/26 02:16:29;;;;;;;18.07;14.53;;;13.70;99.90;;;;;;5009429;28;20678;-86
2021/09/26 02:18:54;;;;;;;18.50;14.27;;;13.70;99.90;;;;;;5009053;28;20179;-87
2021/09/26 02:21:22;;;;;;;20.53;15.23;;;13.80;99.90;;;;;;5003361;28;20687;-86
2021/09/26 02:23:49;;;;;;;16.97;14.10;;;13.80;99.90;;;;;;5018674;28;20195;-88
2021/09/26 02:26:14;;;;;;;20.87;15.77;;;13.90;99.90;;;;;;5002773;28;20196;-87
2021/09/26 02:28:40;;;;;;;22.47;15.97;;;13.90;99.90;;;;;;4987542;28;20168;-88
2021/09/26 02:31:07;;;;;;;18.10;14.23;;;13.90;99.90;;;;;;5002717;28;20179;-86
2021/09/26 02:33:34;;;;;;;17.30;13.67;;;13.90;99.90;;;;;;4986901;28;20230;-87
2021/09/26 02:36:00;;;;;;;18.63;13.33;;;13.90;99.90;;;;;;4986685;28;20302;-85
2021/09/26 02:38:25;;;;;;;18.00;13.53;;;13.80;99.90;;;;;;4986959;28;20207;-87
2021/09/26 02:40:55;;;;;;;19.90;13.97;;;13.80;99.90;;;;;;4985914;28;20171;-86
2021/09/26 02:43:48;;;;;;;17.50;12.63;;;13.80;99.90;;;;;;4987038;28;20192;-87
2021/09/26 02:46:17;;;;;;;16.10;12.80;;;13.70;99.90;;;;;;5004413;28;20621;-86
2021/09/26 02:48:43;;;;;;;17.87;13.10;;;13.70;99.90;;;;;;5003025;28;20179;-87
2021/09/26 02:51:08;;;;;;;15.70;12.57;;;13.70;99.90;;;;;;5008601;28;20251;-85
2021/09/26 02:53:36;;;;;;;16.87;13.07;;;13.70;99.90;;;;;;4992696;28;20282;-87
2021/09/26 02:56:01;;;;;;;17.00;13.57;;;13.70;99.90;;;;;;5007954;28;20200;-84
2021/09/26 02:58:28;;;;;;;18.90;13.13;;;13.70;99.90;;;;;;4991825;28;20556;-86
2021/09/26 03:00:54;;;;;;;15.97;12.60;;;13.50;99.90;;;;;;5008515;28;20674;-86
2021/09/26 03:03:22;;;;;;;18.53;13.47;;;13.60;99.90;;;;;;4992296;28;20270;-85
2021/09/26 03:05:48;;;;;;;16.80;13.33;;;13.70;99.90;;;;;;5008665;28;20203;-86
2021/09/26 03:08:14;;;;;;;16.33;13.23;;;13.60;99.90;;;;;;5008129;28;20211;-86
2021/09/26 03:10:40;;;;;;;15.97;12.37;;;13.50;99.90;;;;;;5008462;28;20186;-86
2021/09/26 03:13:05;;;;;;;18.40;13.43;;;13.50;99.90;;;;;;5007871;28;20180;-86
2021/09/26 03:15:31;;;;;;;15.97;12.20;;;13.50;99.90;;;;;;4991776;28;20706;-86
2021/09/26 03:17:57;;;;;;;14.10;12.50;;;13.50;99.90;;;;;;5007819;28;20174;-86
2021/09/26 03:20:24;;;;;;;18.30;13.53;;;13.50;99.90;;;;;;5007193;28;20659;-87
2021/09/26 03:22:50;;;;;;;16.57;12.77;;;13.50;99.90;;;;;;5008139;28;20179;-86
2021/09/26 03:25:16;;;;;;;14.27;12.13;;;13.50;99.90;;;;;;4992025;28;20328;-85
2021/09/26 03:27:41;;;;;;;16.90;12.80;;;13.50;99.90;;;;;;4991218;28;20183;-86
2021/09/26 03:30:07;;;;;;;18.20;13.63;;;13.50;99.90;;;;;;4990892;28;20176;-85
2021/09/26 03:32:33;;;;;;;17.57;12.67;;;13.50;99.90;;;;;;5024168;28;20250;-85
2021/09/26 03:34:59;;;;;;;19.70;14.50;;;13.50;99.90;;;;;;5007460;28;20211;-85
2021/09/26 03:37:24;;;;;;;19.33;13.50;;;13.60;99.90;;;;;;5008075;28;20229;-83
2021/09/26 03:39:51;;;;;;;19.73;14.47;;;13.60;99.90;;;;;;5008023;28;20590;-84
2021/09/26 03:42:17;;;;;;;18.33;13.77;;;13.70;99.90;;;;;;5008151;28;20180;-86
2021/09/26 03:44:42;;;;;;;21.10;14.23;;;13.70;99.90;;;;;;5007450;28;20191;-83
2021/09/26 03:47:08;;;;;;;15.00;12.47;;;13.80;99.90;;;;;;5008008;28;20188;-84
2021/09/26 03:49:35;;;;;;;16.43;13.23;;;13.70;99.90;;;;;;4991631;28;20214;-85
2021/09/26 03:52:01;;;;;;;17.10;12.70;;;13.70;99.90;;;;;;5006974;28;20181;-85
2021/09/26 03:54:27;;;;;;;16.13;12.80;;;13.80;99.90;;;;;;4990664;28;20175;-85
2021/09/26 03:56:53;;;;;;;17.10;12.70;;;13.80;99.90;;;;;;4990129;28;20281;-85
2021/09/26 03:59:19;;;;;;;19.27;13.73;;;13.70;99.90;;;;;;5007109;28;20180;-86
2021/09/26 04:01:45;;;;;;;18.03;13.77;;;13.80;99.90;;;;;;4991705;28;20594;-84
2021/09/26 04:04:11;;;;;;;16.53;13.10;;;13.80;99.90;;;;;;4991651;28;20180;-85
2021/09/26 04:06:38;;;;;;;20.33;14.07;;;13.80;99.90;;;;;;4991468;28;20207;-85
2021/09/26 04:09:05;;;;;;;16.07;12.23;;;13.90;99.90;;;;;;5008047;28;20199;-85
2021/09/26 04:11:32;;;;;;;17.40;13.53;;;13.90;99.90;;;;;;5007152;28;20189;-86
2021/09/26 04:13:58;;;;;;;18.80;13.60;;;14.00;99.90;;;;;;5007545;28;20205;-85
2021/09/26 04:16:23;;;;;;;17.07;13.60;;;14.00;99.90;;;;;;4991015;28;20724;-86
2021/09/26 04:18:49;;;;;;;18.03;13.23;;;14.10;99.90;;;;;;5007058;28;20176;-85
2021/09/26 04:21:16;;;;;;;18.27;12.73;;;14.10;99.90;;;;;;4990440;28;20205;-86
2021/09/26 04:23:43;;;;;;;15.70;12.37;;;14.10;99.90;;;;;;5006985;28;20211;-84
2021/09/26 04:26:09;;;;;;;18.57;13.90;;;14.10;99.90;;;;;;5007003;28;20230;-84
2021/09/26 04:28:35;;;;;;;17.93;13.70;;;14.20;99.90;;;;;;5006437;28;20191;-86
2021/09/26 04:31:00;;;;;;;18.43;13.47;;;14.20;99.90;;;;;;4990658;28;20243;-86
2021/09/26 04:33:26;;;;;;;15.33;12.40;;;14.30;99.90;;;;;;5021869;28;20183;-86
2021/09/26 04:35:53;;;;;;;17.60;13.30;;;14.30;99.90;;;;;;4990611;28;20223;-85
2021/09/26 04:38:19;;;;;;;15.60;12.33;;;14.30;99.90;;;;;;5007477;28;20179;-85
2021/09/26 04:40:44;;;;;;;14.33;12.13;;;14.30;99.90;;;;;;5006327;28;20647;-86
2021/09/26 04:43:10;;;;;;;15.63;11.50;;;14.40;99.90;;;;;;4990386;28;20184;-85
2021/09/26 04:45:35;;;;;;;16.23;11.93;;;14.40;99.90;;;;;;4991096;28;20206;-85
2021/09/26 04:48:04;;;;;;;15.10;11.43;;;14.40;99.90;;;;;;4989994;28;20184;-86
2021/09/26 04:50:30;;;;;;;15.83;12.47;;;14.50;99.90;;;;;;4990915;28;20175;-85
2021/09/26 04:52:55;;;;;;;14.03;10.93;;;14.40;99.90;;;;;;4989804;28;20186;-85
2021/09/26 04:55:25;;;;;;;16.70;12.40;;;14.50;99.90;;;;;;5006045;28;20203;-85
2021/09/26 04:57:52;;;;;;;13.20;11.13;;;14.50;99.90;;;;;;4990764;28;20690;-86
2021/09/26 05:00:20;;;;;;;14.37;12.10;;;14.50;99.90;;;;;;4989880;28;20345;-83
2021/09/26 05:02:45;;;;;;;14.83;11.70;;;14.50;99.90;;;;;;5006900;28;20175;-85
2021/09/26 05:05:11;;;;;;;12.07;10.50;;;14.50;99.90;;;;;;5026675;28;20195;-85
2021/09/26 05:07:36;;;;;;;14.10;11.10;;;14.50;99.90;;;;;;4994426;28;20187;-85
2021/09/26 05:10:05;;;;;;;12.13;10.50;;;14.60;99.90;;;;;;5010322;28;20215;-85
2021/09/26 05:12:31;;;;;;;12.67;11.00;;;14.60;99.90;;;;;;5010736;28;20210;-85
2021/09/26 05:15:01;;;;;;;12.90;11.43;;;14.60;99.90;;;;;;5010326;28;20199;-85
2021/09/26 05:17:27;;;;;;;14.03;11.20;;;14.50;99.90;;;;;;5027628;28;20203;-85
2021/09/26 05:19:55;;;;;;;13.00;10.17;;;14.60;99.90;;;;;;4993772;28;20179;-85
2021/09/26 05:22:20;;;;;;;12.93;10.70;;;14.60;99.90;;;;;;4991926;28;20193;-86
2021/09/26 05:24:49;;;;;;;15.23;12.43;;;14.60;99.90;;;;;;5007712;28;20667;-86
2021/09/26 05:27:15;;;;;;;16.73;11.37;;;14.60;99.90;;;;;;5007789;28;20643;-85
2021/09/26 05:29:40;;;;;;;15.67;12.10;;;14.60;99.90;;;;;;5007273;28;20183;-88
2021/09/26 05:32:07;;;;;;;12.63;10.63;;;14.60;99.90;;;;;;5006332;28;20180;-87
2021/09/26 05:34:33;;;;;;;13.27;11.10;;;14.60;99.90;;;;;;4991403;28;20192;-86
2021/09/26 05:36:59;;;;;;;12.37;10.70;;;14.60;99.90;;;;;;4990243;28;20584;-85
2021/09/26 05:39:28;;;;;;;12.90;10.83;;;14.60;99.90;;;;;;4991012;28;20176;-86
2021/09/26 05:41:55;;;;;;;13.07;11.57;;;14.60;99.90;;;;;;5004211;28;20265;-87
2021/09/26 05:44:22;;;;;;;14.20;11.10;;;14.60;99.90;;;;;;4986887;28;20182;-86
2021/09/26 05:46:47;;;;;;;13.87;10.60;;;14.70;99.90;;;;;;5003803;28;20186;-86
2021/09/26 05:49:13;;;;;;;14.67;10.47;;;14.70;99.90;;;;;;5002891;28;20569;-86
2021/09/26 05:51:40;;;;;;;12.80;10.83;;;14.70;99.90;;;;;;5003504;28;20207;-86
2021/09/26 05:54:05;;;;;;;13.57;11.33;;;14.80;99.90;;;;;;4986850;28;20187;-87
2021/09/26 05:56:31;;;;;;;13.37;10.97;;;14.80;99.90;;;;;;4986750;28;20219;-86
2021/09/26 05:58:56;;;;;;;14.43;11.33;;;14.80;99.90;;;;;;5018872;28;20180;-87
2021/09/26 06:01:22;;;;;;;12.23;10.93;;;14.80;99.90;;;;;;5000821;28;20220;-86
2021/09/26 06:03:51;;;;;;;13.03;10.90;;;14.90;99.90;;;;;;4998046;28;20195;-84
2021/09/26 06:06:17;;;;;;;13.97;10.87;;;14.90;99.90;;;;;;4997330;28;20702;-84
2021/09/26 06:08:43;;;;;;;12.83;11.03;;;15.00;99.90;;;;;;4989786;28;20207;-85
2021/09/26 06:11:08;;;;;;;13.77;11.27;;;15.00;99.90;;;;;;5008757;28;20245;-85
2021/09/26 06:13:34;;;;;;;14.23;10.80;;;15.00;99.90;;;;;;5008664;28;20198;-83
2021/09/26 06:16:02;;;;;;;13.67;11.00;;;14.90;99.90;;;;;;5025107;28;20215;-85
2021/09/26 06:18:28;;;;;;;13.80;11.73;;;15.00;99.90;;;;;;4992003;28;20195;-85
2021/09/26 06:20:56;;;;;;;13.40;10.80;;;15.10;99.90;;;;;;5008339;28;20183;-85
2021/09/26 06:23:22;;;;;;;14.50;11.47;;;15.10;99.90;;;;;;5024901;28;20175;-84
2021/09/26 06:25:48;;;;;;;13.53;10.83;;;15.40;99.90;;;;;;4998238;28;20246;-82
2021/09/26 06:28:13;;;;;;;11.67;10.40;;;15.90;99.90;;;;;;5018352;28;20609;-83
2021/09/26 06:30:39;;;;;;;14.20;10.33;;;16.40;99.90;;;;;;4985014;28;20186;-83
2021/09/26 06:33:05;;;;;;;10.13;8.73;;;17.00;99.90;;;;;;5000598;28;20176;-82
2021/09/26 06:35:31;;;;;;;10.30;8.83;;;17.80;99.90;;;;;;5008797;23;20612;-76
2021/09/26 06:37:56;;;;;;;10.80;8.67;;;18.00;99.90;;;;;;5013254;28;20167;-75
2021/09/26 06:40:22;;;;;;;10.33;8.87;;;18.00;99.90;;;;;;5020432;28;20551;-75
2021/09/26 06:42:47;;;;;;;10.23;9.13;;;17.90;99.90;;;;;;5025199;28;20175;-76
2021/09/26 06:45:13;;;;;;;10.37;8.40;;;17.80;99.90;;;;;;5011360;28;20737;-76
2021/09/26 06:47:39;;;;;;;15.37;9.23;;;17.70;99.90;;;;;;4996752;28;20176;-76
2021/09/26 06:50:05;;;;;;;10.27;9.27;;;17.70;99.90;;;;;;5013225;28;20627;-77
2021/09/26 06:52:31;;;;;;;13.17;9.10;;;17.60;99.90;;;;;;4995136;28;20212;-76
2021/09/26 06:54:56;;;;;;;10.47;8.70;;;17.60;99.90;;;;;;4977975;28;20849;-77
2021/09/26 06:57:22;;;;;;;13.30;9.03;;;17.60;99.90;;;;;;5013932;28;20261;-75
2021/09/26 06:59:47;;;;;;;10.60;9.00;;;17.60;99.90;;;;;;4998035;28;20596;-78
2021/09/26 07:02:17;;;;;;;10.60;8.23;;;17.50;99.90;;;;;;5020774;28;20639;-81
2021/09/26 07:04:43;;;;;;;9.77;8.37;;;17.60;99.90;;;;;;4987852;28;20177;-82
2021/09/26 07:07:08;;;;;;;9.07;8.03;;;17.50;99.90;;;;;;5015038;28;20717;-79
2021/09/26 07:09:34;;;;;;;10.47;9.00;;;17.50;99.90;;;;;;5003886;28;20214;-78
2021/09/26 07:11:59;;;;;;;11.60;8.30;;;17.40;99.90;;;;;;4984511;28;20172;-78
2021/09/26 07:14:25;;;;;;;9.03;7.93;;;17.30;99.90;;;;;;4987543;28;20199;-80
2021/09/26 07:16:51;;;;;;;10.43;8.60;;;17.20;99.90;;;;;;4993346;28;20232;-79
2021/09/26 07:19:17;;;;;;;10.33;8.10;;;17.20;99.90;;;;;;5000875;28;20259;-79
2021/09/26 07:21:42;;;;;;;10.63;8.43;;;17.20;99.90;;;;;;5000926;28;20199;-79
2021/09/26 07:24:08;;;;;;;9.23;8.17;;;17.20;99.90;;;;;;5015526;28;20174;-78
2021/09/26 07:26:33;;;;;;;9.43;8.20;;;17.10;99.90;;;;;;4995867;28;20199;-77
2021/09/26 07:28:59;;;;;;;9.80;8.07;;;17.10;99.90;;;;;;4996085;28;20187;-78
2021/09/26 07:31:24;;;;;;;9.20;8.30;;;17.20;99.90;;;;;;4994237;28;20282;-78
2021/09/26 07:33:51;;;;;;;9.17;7.70;;;17.30;99.90;;;;;;4990285;28;20606;-78
2021/09/26 07:36:16;;;;;;;9.60;7.87;;;17.40;99.90;;;;;;5012858;28;20262;-78
2021/09/26 07:38:42;;;;;;;11.63;8.37;;;17.50;99.90;;;;;;4979949;28;20186;-78
2021/09/26 07:41:07;;;;;;;11.47;8.27;;;17.60;99.90;;;;;;4996748;28;20210;-78
2021/09/26 07:43:33;;;;;;;10.47;7.93;;;17.60;99.90;;;;;;5002356;28;20252;-80
2021/09/26 07:45:58;;;;;;;9.33;8.37;;;17.50;99.90;;;;;;5002468;28;20222;-81
2021/09/26 07:48:24;;;;;;;11.37;8.40;;;17.50;99.90;;;;;;5003253;28;20189;-80
2021/09/26 07:50:51;;;;;;;11.63;8.50;;;17.50;99.90;;;;;;4987785;28;20190;-80
2021/09/26 07:53:17;;;;;;;12.13;8.07;;;17.50;99.90;;;;;;4993034;28;20638;-81
2021/09/26 07:55:42;;;;;;;9.93;8.27;;;17.50;99.90;;;;;;5006500;28;20192;-80
2021/09/26 07:58:09;;;;;;;9.50;7.97;;;17.40;99.90;;;;;;4987518;28;20244;-78
2021/09/26 08:00:35;;;;;;;9.83;8.60;;;17.40;99.90;;;;;;4970268;28;20195;-79
2021/09/26 08:03:00;;;;;;;11.50;8.80;;;17.50;99.90;;;;;;4984672;28;20172;-80
2021/09/26 08:05:26;;;;;;;10.73;8.53;;;17.50;99.90;;;;;;4983276;28;20204;-78
2021/09/26 08:07:51;;;;;;;10.60;8.47;;;17.50;99.90;;;;;;4985751;28;20230;-79
2021/09/26 08:10:17;;;;;;;9.37;8.27;;;17.60;99.90;;;;;;4967443;28;20184;-78
2021/09/26 08:12:42;;;;;;;10.10;8.57;;;17.70;99.90;;;;;;4973500;28;20646;-78
2021/09/26 08:15:08;;;;;;;9.37;7.80;;;17.80;99.90;;;;;;4986310;28;20693;-78
2021/09/26 08:17:34;;;;;;;10.57;7.90;;;18.10;99.90;;;;;;5000558;28;20367;-77
2021/09/26 08:20:00;;;;;;;9.33;7.93;;;18.40;99.90;;;;;;4995203;28;20660;-77
2021/09/26 08:22:27;;;;;;;9.10;7.63;;;18.60;99.90;;;;;;5013604;28;20182;-79
2021/09/26 08:24:53;;;;;;;8.07;7.27;;;18.50;99.90;;;;;;5000539;28;20186;-80
2021/09/26 08:27:18;;;;;;;8.73;7.30;;;18.60;99.90;;;;;;5014956;28;20176;-78
2021/09/26 08:29:45;;;;;;;8.13;7.33;;;18.70;99.90;;;;;;4980072;28;20180;-79
2021/09/26 08:32:10;;;;;;;9.47;8.27;;;18.80;99.90;;;;;;5011006;28;20639;-81
2021/09/26 08:34:36;;;;;;;9.17;7.80;;;18.90;99.90;;;;;;4980578;28;20179;-79
2021/09/26 08:37:01;;;;;;;8.57;7.30;;;19.30;99.90;;;;;;4996101;28;20211;-81
2021/09/26 08:39:27;;;;;;;9.00;7.33;;;19.70;99.90;;;;;;4992984;28;20185;-82
2021/09/26 08:41:53;;;;;;;8.30;7.47;;;20.40;99.90;;;;;;4995714;28;20223;-80
2021/09/26 08:44:23;;;;;;;8.23;6.90;;;20.60;99.90;;;;;;4995769;28;20187;-78
2021/09/26 08:46:50;;;;;;;8.53;6.90;;;20.70;99.90;;;;;;4979326;28;20626;-78
2021/09/26 08:49:16;;;;;;;7.57;6.77;;;20.90;99.90;;;;;;5008543;28;20215;-76
2021/09/26 08:51:43;;;;;;;8.80;7.27;;;21.70;99.90;;;;;;4994323;28;20212;-76
2021/09/26 08:54:09;;;;;;;7.10;6.40;;;22.50;99.90;;;;;;4959443;28;20184;-77
2021/09/26 08:56:34;;;;;;;7.57;6.60;;;23.60;99.90;;;;;;5004934;28;20704;-77
2021/09/26 08:59:00;;;;;;;10.03;7.07;;;24.80;99.90;;;;;;5013151;28;20811;-76
2021/09/26 09:01:27;;;;;;;9.17;6.93;;;25.80;99.90;;;;;;5009435;28;20182;-76
2021/09/26 09:03:53;;;;;;;7.50;6.80;;;26.20;99.90;;;;;;5008549;28;20190;-76
2021/09/26 09:06:19;;;;;;;9.00;7.07;;;26.00;99.90;;;;;;5007362;28;20200;-75
2021/09/26 09:08:45;;;;;;;8.27;6.63;;;25.30;99.90;;;;;;5000642;28;20195;-76
2021/09/26 09:11:11;;;;;;;7.73;6.30;;;24.40;99.90;;;;;;4976120;28;20551;-75
2021/09/26 09:13:42;;;;;;;7.27;6.53;;;23.80;99.90;;;;;;5011368;28;20195;-76
2021/09/26 09:16:10;;;;;;;8.47;6.30;;;23.30;99.90;;;;;;5010758;28;20694;-75
2021/09/26 09:18:50;;;;;;;7.80;6.47;;;23.10;99.90;;;;;;5011231;28;20175;-75
2021/09/26 09:21:32;;;;;;;7.97;6.47;;;23.10;99.90;;;;;;5006385;28;20758;-76
2021/09/26 09:24:25;;;;;;;8.73;6.67;;;23.30;99.90;;;;;;4991679;28;20176;-75
2021/09/26 09:26:51;;;;;;;7.70;6.47;;;23.30;99.90;;;;;;5005896;28;20306;-75
2021/09/26 09:29:18;;;;;;;7.70;6.57;;;23.20;99.90;;;;;;5010434;28;20225;-75
2021/09/26 09:31:54;;;;;;;7.30;6.60;;;23.10;99.90;;;;;;5009232;28;20673;-75
2021/09/26 09:34:33;;;;;;;8.60;6.80;;;23.10;99.90;;;;;;4995132;28;20183;-75
2021/09/26 09:37:20;;;;;;;9.73;6.90;;;23.20;99.90;;;;;;5010373;28;20600;-75
2021/09/26 09:40:04;;;;;;;10.13;6.60;;;23.60;99.90;;;;;;5010264;28;20175;-75
2021/09/26 09:42:39;;;;;;;7.00;5.67;;;23.70;99.90;;;;;;5011246;28;20184;-75
2021/09/26 09:45:24;;;;;;;8.33;6.30;;;24.00;99.90;;;;;;5010473;28;20205;-75
2021/09/26 09:48:12;;;;;;;6.77;5.87;;;24.10;99.90;;;;;;5010533;28;20583;-75
2021/09/26 09:50:47;;;;;;;7.60;6.83;;;24.00;99.90;;;;;;5014122;28;20207;-75
2021/09/26 09:53:41;;;;;;;7.67;6.97;;;23.80;99.90;;;;;;5013607;28;20183;-75
2021/09/26 09:56:08;;;;;;;9.40;6.13;;;24.00;99.90;;;;;;4997638;28;20342;-75
2021/09/26 09:58:56;;;;;;;7.97;6.97;;;24.10;99.90;;;;;;5013955;28;20183;-75
2021/09/26 10:01:30;;;;;;;7.70;5.70;;;24.10;99.90;;;;;;4984580;28;20183;-75
2021/09/26 10:04:00;;;;;;;7.37;6.47;;;24.10;99.90;;;;;;4997292;28;20180;-75
2021/09/26 10:06:30;;;;;;;6.67;5.97;;;24.10;99.90;;;;;;5013878;28;20195;-75
2021/09/26 10:08:59;;;;;;;8.83;6.40;;;24.00;99.90;;;;;;4997601;28;20188;-75
2021/09/26 10:11:29;;;;;;;6.60;5.90;;;24.10;99.90;;;;;;5013956;28;20180;-75
2021/09/26 10:13:56;;;;;;;6.80;5.87;;;24.10;99.90;;;;;;5013359;28;20521;-75
2021/09/26 10:16:22;;;;;;;7.43;6.20;;;24.20;99.90;;;;;;4997463;28;20683;-75
2021/09/26 10:18:48;;;;;;;7.67;6.10;;;24.20;99.90;;;;;;5013683;28;20734;-75
2021/09/26 10:21:14;;;;;;;8.70;6.40;;;24.30;99.90;;;;;;5014857;28;20187;-75
2021/09/26 10:23:44;;;;;;;9.80;6.00;;;24.30;99.90;;;;;;5013530;28;20183;-76
2021/09/26 10:26:10;;;;;;;9.70;5.93;;;24.40;99.90;;;;;;4997298;28;20249;-76
2021/09/26 10:28:35;;;;;;;6.70;5.43;;;24.50;99.90;;;;;;4980723;28;20191;-76
2021/09/26 10:31:03;;;;;;;7.70;6.07;;;24.50;99.90;;;;;;4980866;28;20183;-75
2021/09/26 10:33:29;;;;;;;6.95;5.72;;;24.60;99.90;;;;;;4997315;28;20548;-75
2021/09/26 10:35:55;;;;;;;8.00;5.87;;;24.70;99.90;;;;;;4997060;28;20219;-75
2021/09/26 10:38:21;;;;;;;9.03;5.70;;;24.60;99.90;;;;;;5012734;28;20278;-75
2021/09/26 10:40:47;;;;;;;7.63;6.13;;;24.50;99.90;;;;;;5012786;28;20623;-75
2021/09/26 10:43:20;;;;;;;7.20;6.20;;;24.40;99.90;;;;;;4976887;28;20180;-75
2021/09/26 10:45:45;;;;;;;6.90;5.90;;;24.30;99.90;;;;;;4977136;28;20204;-75
2021/09/26 10:48:11;;;;;;;11.43;6.40;;;24.20;99.90;;;;;;5009415;28;20182;-75
2021/09/26 10:50:38;;;;;;;10.97;5.53;;;24.20;99.90;;;;;;4996398;28;20215;-75
2021/09/26 10:53:12;;;;;;;7.93;5.87;;;24.30;99.90;;;;;;4996338;28;20226;-76
2021/09/26 10:55:39;;;;;;;7.97;6.10;;;24.40;99.90;;;;;;5013812;28;20317;-75
2021/09/26 10:58:07;;;;;;;6.67;5.80;;;24.40;99.90;;;;;;4980004;28;20590;-75
2021/09/26 11:00:35;;;;;;;6.17;5.43;;;24.50;99.90;;;;;;5010565;28;20213;-75
2021/09/26 11:03:28;;;;;;;7.37;5.60;;;24.50;99.90;;;;;;5012172;28;20635;-75
2021/09/26 11:05:54;;;;;;;6.80;5.30;;;24.70;99.90;;;;;;5008403;28;20215;-75
2021/09/26 11:08:26;;;;;;;6.25;5.53;;;25.00;99.90;;;;;;4990389;28;20323;-75
2021/09/26 11:10:56;;;;;;;5.97;5.38;;;25.00;99.90;;;;;;5013424;28;20210;-75
2021/09/26 11:13:26;;;;;;;6.40;5.70;;;25.10;99.90;;;;;;4995965;28;20234;-75
2021/09/26 11:16:06;;;;;;;6.50;4.93;;;25.10;99.90;;;;;;4996397;28;20235;-75
2021/09/26 11:18:52;;;;;;;6.30;4.93;;;25.10;99.90;;;;;;4981506;28;20183;-75
2021/09/26 11:21:36;;;;;;;5.18;4.68;;;25.20;99.90;;;;;;5008827;28;20251;-75
2021/09/26 11:24:03;;;;;;;5.88;5.05;;;25.20;99.90;;;;;;5009905;28;20649;-75
2021/09/26 11:26:59;;;;;;;6.18;5.03;;;25.10;99.90;;;;;;4989490;28;20266;-75
2021/09/26 11:29:43;;;;;;;5.72;4.97;;;25.10;99.90;;;;;;5013615;28;20278;-75
2021/09/26 11:32:28;;;;;;;5.60;5.00;;;25.20;99.90;;;;;;5009777;28;20179;-75
2021/09/26 11:34:58;;;;;;;8.15;6.22;;;25.10;99.90;;;;;;4984300;28;20546;-75
2021/09/26 11:37:37;;;;;;;7.80;5.30;;;25.00;99.90;;;;;;4995429;28;20234;-75
2021/09/26 11:40:04;;;;;;;6.47;5.47;;;24.90;99.90;;;;;;5009708;28;20172;-75
2021/09/26 11:42:33;;;;;;;7.13;5.40;;;24.70;99.90;;;;;;4995095;28;20176;-76
2021/09/26 11:44:59;;;;;;;6.32;5.60;;;24.60;99.90;;;;;;5011766;28;20703;-76
2021/09/26 11:47:26;;;;;;;7.32;5.28;;;24.50;99.90;;;;;;4990873;28;20270;-75
2021/09/26 11:49:53;;;;;;;7.70;5.83;;;24.60;99.90;;;;;;5001553;28;20176;-76
2021/09/26 11:52:22;;;;;;;6.40;5.23;;;24.70;99.90;;;;;;5008169;28;20179;-76
2021/09/26 11:54:48;;;;;;;6.00;4.72;;;24.80;99.90;;;;;;4988796;28;20258;-76
2021/09/26 11:57:20;;;;;;;6.18;4.53;;;24.90;99.90;;;;;;4983683;28;20302;-76
2021/09/26 11:59:46;;;;;;;5.90;4.53;;;25.00;99.90;;;;;;5006196;28;20207;-76
2021/09/26 12:02:12;;;;;;;6.45;4.63;;;25.10;99.90;;;;;;5008005;28;20199;-76
2021/09/26 12:04:38;;;;;;;6.47;4.47;;;25.20;99.90;;;;;;5004267;28;20194;-76
2021/09/26 12:07:06;;;;;;;5.93;4.67;;;25.20;99.90;;;;;;4991505;28;20208;-76
2021/09/26 12:09:45;;;;;;;8.43;4.80;;;25.20;99.90;;;;;;4970834;28;20187;-76
2021/09/26 12:12:23;;;;;;;6.28;4.65;;;25.20;99.90;;;;;;5004852;28;20180;-75
2021/09/26 12:14:51;;;;;;;6.22;4.30;;;25.20;99.90;;;;;;5004537;28;20689;-75
2021/09/26 12:17:25;;;;;;;5.05;4.38;;;25.20;99.90;;;;;;5004417;28;20199;-76
2021/09/26 12:19:55;;;;;;;4.95;3.90;;;25.20;99.90;;;;;;5007934;28;20202;-76
2021/09/26 12:22:21;;;;;;;7.10;4.20;;;25.30;99.90;;;;;;5005560;28;20662;-76
2021/09/26 12:24:58;;;;;;;4.75;3.80;;;25.30;99.90;;;;;;4996900;28;20214;-77
2021/09/26 12:27:37;;;;;;;6.00;3.80;;;25.30;99.90;;;;;;5011318;28;20234;-78
2021/09/26 12:30:07;;;;;;;6.10;3.60;;;25.40;99.90;;;;;;4996737;28;20266;-78
2021/09/26 12:32:47;;;;;;;4.55;3.38;;;25.30;99.90;;;;;;5003543;28;20202;-77
2021/09/26 12:35:16;;;;;;;5.25;3.60;;;25.20;99.90;;;;;;4991807;28;20250;-77
2021/09/26 12:37:51;;;;;;;7.90;3.70;;;25.00;99.90;;;;;;4990468;28;20215;-77
2021/09/26 12:40:22;;;;;;;4.07;3.50;;;25.00;99.90;;;;;;4989737;28;20222;-77
2021/09/26 12:42:50;;;;;;;4.15;3.58;;;25.00;99.90;;;;;;4991637;28;20556;-78